Kyokuhoumaru No.12 — JL5963 — position and weather

sailwx.info

Track history (hours):
 
Tides and Currents Weather Stations Pressure Air Temp Water Temp Dewpoint Dewpoint Depression Visibility Wind Speed Wind Dir Waves Ship Positions

Kyokuhoumaru No.12

Last reported at 2017-Feb-21 04:20 UTC. Time now 2017-Feb-21 09:56 UTC.
Position N 34°32' E 135°21'.

Length 57 m.

Type: Tanker. MMSI: 431500879.

Date/timePositionNaut miles runAvg speedWind from/ knotsBaromVisibWave heightAir tempDewpointWater temp
2017-Feb-21 04:20N 34°32' E 135°21'0 0.0
2017-Feb-21 02:20N 34°32' E 135°21'0 0.0
2017-Feb-20 16:07N 34°32' E 135°21'5 9.0
2017-Feb-20 15:32N 34°34' E 135°15'1010.1
2017-Feb-20 14:33N 34°36' E 135°03'  
2017-Feb-13 05:28N 35°21' E 139°42'8 8.8
2017-Feb-13 04:33N 35°28' E 139°48'5 0.3
2017-Feb-12 14:19N 35°30' E 139°53'10 8.2
2017-Feb-12 13:08N 35°23' E 139°46'5 7.2
2017-Feb-12 12:31N 35°18' E 139°45'  
Track history (hours):
 
Tides and Currents Weather Stations Pressure Air Temp Water Temp Dewpoint Dewpoint Depression Visibility Wind Speed Wind Dir Waves Ship Positions

Kyokuhoumaru No.12

Last reported at 2017-Feb-21 04:20 UTC. Time now 2017-Feb-21 09:56 UTC.
Position N 34°32' E 135°21'.

Length 57 m.

Type: Tanker. MMSI: 431500879.

Date/timePositionNaut miles runAvg speedWind from/ knotsBaromVisibWave heightAir tempDewpointWater temp
2017-Feb-21 04:20N 34°32' E 135°21'0 0.0
2017-Feb-21 02:20N 34°32' E 135°21'0 0.0
2017-Feb-20 16:07N 34°32' E 135°21'5 9.0
2017-Feb-20 15:32N 34°34' E 135°15'1010.1
2017-Feb-20 14:33N 34°36' E 135°03'  
2017-Feb-13 05:28N 35°21' E 139°42'8 8.8
2017-Feb-13 04:33N 35°28' E 139°48'5 0.3
2017-Feb-12 14:19N 35°30' E 139°53'10 8.2
2017-Feb-12 13:08N 35°23' E 139°46'5 7.2
2017-Feb-12 12:31N 35°18' E 139°45'  

Dump ship's entire track history